sensor_id;sensor_type;location;lat;lon;timestamp;temperature;humidity
54126;DHT22;40360;52.992;6.796;2023-08-07T00:00:24;14.20;99.90
54126;DHT22;40360;52.992;6.796;2023-08-07T00:02:49;14.20;99.90
54126;DHT22;40360;52.992;6.796;2023-08-07T00:05:15;14.30;99.90
54126;DHT22;40360;52.992;6.796;2023-08-07T00:07:44;14.30;99.90
54126;DHT22;40360;52.992;6.796;2023-08-07T00:10:10;14.30;99.90
54126;DHT22;40360;52.992;6.796;2023-08-07T00:12:35;14.30;99.90
54126;DHT22;40360;52.992;6.796;2023-08-07T00:15:02;14.30;99.90
54126;DHT22;40360;52.992;6.796;2023-08-07T00:17:28;14.30;99.90
54126;DHT22;40360;52.992;6.796;2023-08-07T00:19:54;14.40;99.90
54126;DHT22;40360;52.992;6.796;2023-08-07T00:22:20;15.50;99.90
54126;DHT22;40360;52.992;6.796;2023-08-07T00:24:46;14.50;99.90
54126;DHT22;40360;52.992;6.796;2023-08-07T00:27:11;14.50;99.90
54126;DHT22;40360;52.992;6.796;2023-08-07T00:29:38;14.50;99.90
54126;DHT22;40360;52.992;6.796;2023-08-07T00:32:04;14.50;99.90
54126;DHT22;40360;52.992;6.796;2023-08-07T00:34:30;14.50;99.90
54126;DHT22;40360;52.992;6.796;2023-08-07T00:36:56;14.50;99.90
54126;DHT22;40360;52.992;6.796;2023-08-07T00:39:21;14.60;99.90
54126;DHT22;40360;52.992;6.796;2023-08-07T00:41:47;14.60;99.90
54126;DHT22;40360;52.992;6.796;2023-08-07T00:44:13;14.60;99.90
54126;DHT22;40360;52.992;6.796;2023-08-07T00:46:39;14.60;99.90
54126;DHT22;40360;52.992;6.796;2023-08-07T00:49:06;14.60;99.90
54126;DHT22;40360;52.992;6.796;2023-08-07T00:51:33;14.60;99.90
54126;DHT22;40360;52.992;6.796;2023-08-07T00:54:00;14.70;99.90
54126;DHT22;40360;52.992;6.796;2023-08-07T00:56:28;14.60;99.90
54126;DHT22;40360;52.992;6.796;2023-08-07T00:58:53;14.70;99.90
54126;DHT22;40360;52.992;6.796;2023-08-07T01:01:19;14.60;99.90
54126;DHT22;40360;52.992;6.796;2023-08-07T01:03:45;14.60;99.90
54126;DHT22;40360;52.992;6.796;2023-08-07T01:06:11;14.60;99.90
54126;DHT22;40360;52.992;6.796;2023-08-07T01:08:36;14.60;99.90
54126;DHT22;40360;52.992;6.796;2023-08-07T01:11:07;14.50;99.90
54126;DHT22;40360;52.992;6.796;2023-08-07T01:16:48;14.50;99.90
54126;DHT22;40360;52.992;6.796;2023-08-07T01:19:34;14.50;99.90
54126;DHT22;40360;52.992;6.796;2023-08-07T01:22:14;14.40;99.90
54126;DHT22;40360;52.992;6.796;2023-08-07T01:24:43;14.40;99.90
54126;DHT22;40360;52.992;6.796;2023-08-07T01:35:22;14.50;99.90
54126;DHT22;40360;52.992;6.796;2023-08-07T01:37:52;14.50;99.90
54126;DHT22;40360;52.992;6.796;2023-08-07T01:40:20;14.60;99.90
54126;DHT22;40360;52.992;6.796;2023-08-07T01:42:46;14.50;99.90
54126;DHT22;40360;52.992;6.796;2023-08-07T01:45:13;14.50;99.90
54126;DHT22;40360;52.992;6.796;2023-08-07T01:47:39;14.50;99.90
54126;DHT22;40360;52.992;6.796;2023-08-07T01:50:06;14.50;99.90
54126;DHT22;40360;52.992;6.796;2023-08-07T01:52:31;14.50;99.90
54126;DHT22;40360;52.992;6.796;2023-08-07T01:54:57;14.50;99.90
54126;DHT22;40360;52.992;6.796;2023-08-07T01:57:23;14.50;99.90
54126;DHT22;40360;52.992;6.796;2023-08-07T01:59:49;14.50;99.90
54126;DHT22;40360;52.992;6.796;2023-08-07T02:02:14;14.50;99.90
54126;DHT22;40360;52.992;6.796;2023-08-07T02:04:40;14.50;99.90
54126;DHT22;40360;52.992;6.796;2023-08-07T02:07:06;14.50;99.90
54126;DHT22;40360;52.992;6.796;2023-08-07T02:09:31;14.30;99.90
54126;DHT22;40360;52.992;6.796;2023-08-07T02:11:57;14.50;99.90
54126;DHT22;40360;52.992;6.796;2023-08-07T02:14:22;14.50;99.90
54126;DHT22;40360;52.992;6.796;2023-08-07T02:16:48;14.50;99.90
54126;DHT22;40360;52.992;6.796;2023-08-07T02:19:13;14.40;99.90
54126;DHT22;40360;52.992;6.796;2023-08-07T02:21:39;14.40;99.90
54126;DHT22;40360;52.992;6.796;2023-08-07T02:24:05;14.40;99.90
54126;DHT22;40360;52.992;6.796;2023-08-07T02:26:30;14.40;99.90
54126;DHT22;40360;52.992;6.796;2023-08-07T02:28:56;14.50;99.90
54126;DHT22;40360;52.992;6.796;2023-08-07T02:31:21;14.50;99.90
54126;DHT22;40360;52.992;6.796;2023-08-07T02:33:47;14.50;99.90
54126;DHT22;40360;52.992;6.796;2023-08-07T02:36:12;14.40;99.90
54126;DHT22;40360;52.992;6.796;2023-08-07T02:38:38;14.40;99.90
54126;DHT22;40360;52.992;6.796;2023-08-07T02:41:04;14.50;99.90
54126;DHT22;40360;52.992;6.796;2023-08-07T02:43:29;14.40;99.90
54126;DHT22;40360;52.992;6.796;2023-08-07T02:45:58;14.40;99.90
54126;DHT22;40360;52.992;6.796;2023-08-07T02:48:24;14.40;99.90
54126;DHT22;40360;52.992;6.796;2023-08-07T02:50:49;14.40;99.90
54126;DHT22;40360;52.992;6.796;2023-08-07T02:53:16;14.40;99.90
54126;DHT22;40360;52.992;6.796;2023-08-07T02:55:43;14.40;99.90
54126;DHT22;40360;52.992;6.796;2023-08-07T02:58:09;14.40;99.90
54126;DHT22;40360;52.992;6.796;2023-08-07T03:00:35;14.40;99.90
54126;DHT22;40360;52.992;6.796;2023-08-07T03:03:00;14.40;99.90
54126;DHT22;40360;52.992;6.796;2023-08-07T03:05:26;14.40;99.90
54126;DHT22;40360;52.992;6.796;2023-08-07T03:07:52;14.30;99.90
54126;DHT22;40360;52.992;6.796;2023-08-07T03:10:17;14.30;99.90
54126;DHT22;40360;52.992;6.796;2023-08-07T03:12:43;14.40;99.90
54126;DHT22;40360;52.992;6.796;2023-08-07T03:15:09;14.30;99.90
54126;DHT22;40360;52.992;6.796;2023-08-07T03:17:35;14.30;99.90
54126;DHT22;40360;52.992;6.796;2023-08-07T03:20:01;14.20;99.90
54126;DHT22;40360;52.992;6.796;2023-08-07T03:22:26;14.30;99.90
54126;DHT22;40360;52.992;6.796;2023-08-07T03:24:52;14.20;99.90
54126;DHT22;40360;52.992;6.796;2023-08-07T03:27:18;14.20;99.90
54126;DHT22;40360;52.992;6.796;2023-08-07T03:29:43;14.30;99.90
54126;DHT22;40360;52.992;6.796;2023-08-07T03:32:09;14.30;99.90
54126;DHT22;40360;52.992;6.796;2023-08-07T03:34:35;14.30;99.90
54126;DHT22;40360;52.992;6.796;2023-08-07T03:37:00;14.30;99.90
54126;DHT22;40360;52.992;6.796;2023-08-07T03:39:26;14.30;99.90
54126;DHT22;40360;52.992;6.796;2023-08-07T03:41:51;14.30;99.90
54126;DHT22;40360;52.992;6.796;2023-08-07T03:44:17;14.20;99.90
54126;DHT22;40360;52.992;6.796;2023-08-07T03:46:43;14.20;99.90
54126;DHT22;40360;52.992;6.796;2023-08-07T03:49:08;14.20;99.90
54126;DHT22;40360;52.992;6.796;2023-08-07T03:51:34;14.20;99.90
54126;DHT22;40360;52.992;6.796;2023-08-07T03:54:00;14.20;99.90
54126;DHT22;40360;52.992;6.796;2023-08-07T03:56:25;14.10;99.90
54126;DHT22;40360;52.992;6.796;2023-08-07T03:58:51;14.10;99.90
54126;DHT22;40360;52.992;6.796;2023-08-07T04:01:16;14.20;99.90
54126;DHT22;40360;52.992;6.796;2023-08-07T04:03:42;14.10;99.90
54126;DHT22;40360;52.992;6.796;2023-08-07T04:06:08;14.10;99.90
54126;DHT22;40360;52.992;6.796;2023-08-07T04:08:36;14.00;99.90
54126;DHT22;40360;52.992;6.796;2023-08-07T04:11:03;14.20;99.90
54126;DHT22;40360;52.992;6.796;2023-08-07T04:13:29;14.00;99.90
54126;DHT22;40360;52.992;6.796;2023-08-07T04:15:55;13.90;99.90
54126;DHT22;40360;52.992;6.796;2023-08-07T04:18:21;14.00;99.90
54126;DHT22;40360;52.992;6.796;2023-08-07T04:20:53;14.00;99.90
54126;DHT22;40360;52.992;6.796;2023-08-07T04:23:19;14.00;99.90
54126;DHT22;40360;52.992;6.796;2023-08-07T04:25:46;14.10;99.90
54126;DHT22;40360;52.992;6.796;2023-08-07T04:28:12;14.10;99.90
54126;DHT22;40360;52.992;6.796;2023-08-07T04:30:38;14.10;99.90
54126;DHT22;40360;52.992;6.796;2023-08-07T04:33:04;14.10;99.90
54126;DHT22;40360;52.992;6.796;2023-08-07T04:35:30;14.10;99.90
54126;DHT22;40360;52.992;6.796;2023-08-07T04:37:56;14.10;99.90
54126;DHT22;40360;52.992;6.796;2023-08-07T04:40:22;14.20;99.90
54126;DHT22;40360;52.992;6.796;2023-08-07T04:42:49;14.20;99.90
54126;DHT22;40360;52.992;6.796;2023-08-07T04:45:14;14.20;99.90
54126;DHT22;40360;52.992;6.796;2023-08-07T04:47:40;14.30;99.90
54126;DHT22;40360;52.992;6.796;2023-08-07T04:50:07;14.20;99.90
54126;DHT22;40360;52.992;6.796;2023-08-07T04:52:33;14.30;99.90
54126;DHT22;40360;52.992;6.796;2023-08-07T04:54:59;14.40;99.90
54126;DHT22;40360;52.992;6.796;2023-08-07T04:57:25;14.30;99.90
54126;DHT22;40360;52.992;6.796;2023-08-07T04:59:51;14.40;99.90
54126;DHT22;40360;52.992;6.796;2023-08-07T05:02:16;14.40;99.90
54126;DHT22;40360;52.992;6.796;2023-08-07T05:04:42;14.60;99.90
54126;DHT22;40360;52.992;6.796;2023-08-07T05:07:07;14.50;99.90
54126;DHT22;40360;52.992;6.796;2023-08-07T05:09:33;14.40;99.90
54126;DHT22;40360;52.992;6.796;2023-08-07T05:11:59;14.40;99.90
54126;DHT22;40360;52.992;6.796;2023-08-07T05:14:24;14.50;99.90
54126;DHT22;40360;52.992;6.796;2023-08-07T05:16:50;14.50;99.90
54126;DHT22;40360;52.992;6.796;2023-08-07T05:19:15;14.50;99.90
54126;DHT22;40360;52.992;6.796;2023-08-07T05:21:41;14.50;99.90
54126;DHT22;40360;52.992;6.796;2023-08-07T05:24:06;14.50;99.90
54126;DHT22;40360;52.992;6.796;2023-08-07T05:26:32;14.50;99.90
54126;DHT22;40360;52.992;6.796;2023-08-07T05:28:58;14.50;99.90
54126;DHT22;40360;52.992;6.796;2023-08-07T05:31:24;14.70;99.90
54126;DHT22;40360;52.992;6.796;2023-08-07T05:33:50;14.60;99.90
54126;DHT22;40360;52.992;6.796;2023-08-07T05:36:16;14.60;99.90
54126;DHT22;40360;52.992;6.796;2023-08-07T05:38:41;14.60;99.90
54126;DHT22;40360;52.992;6.796;2023-08-07T05:41:09;14.40;99.90
54126;DHT22;40360;52.992;6.796;2023-08-07T05:43:35;14.70;99.90
54126;DHT22;40360;52.992;6.796;2023-08-07T06:02:12;16.10;99.90
54126;DHT22;40360;52.992;6.796;2023-08-07T06:04:38;14.90;99.90
54126;DHT22;40360;52.992;6.796;2023-08-07T06:07:04;14.90;99.90
54126;DHT22;40360;52.992;6.796;2023-08-07T06:09:30;14.90;99.90
54126;DHT22;40360;52.992;6.796;2023-08-07T06:11:56;14.90;99.90
54126;DHT22;40360;52.992;6.796;2023-08-07T06:14:21;15.00;99.90
54126;DHT22;40360;52.992;6.796;2023-08-07T06:16:48;15.10;99.90
54126;DHT22;40360;52.992;6.796;2023-08-07T06:19:13;15.30;99.90
54126;DHT22;40360;52.992;6.796;2023-08-07T06:21:39;15.20;99.90
54126;DHT22;40360;52.992;6.796;2023-08-07T06:24:04;15.30;99.90
54126;DHT22;40360;52.992;6.796;2023-08-07T06:26:30;15.40;99.90
54126;DHT22;40360;52.992;6.796;2023-08-07T06:28:55;15.40;99.90
54126;DHT22;40360;52.992;6.796;2023-08-07T06:31:21;15.40;99.90
54126;DHT22;40360;52.992;6.796;2023-08-07T06:33:47;15.40;99.90
54126;DHT22;40360;52.992;6.796;2023-08-07T06:36:12;15.50;99.90
54126;DHT22;40360;52.992;6.796;2023-08-07T06:38:38;15.50;99.90
54126;DHT22;40360;52.992;6.796;2023-08-07T06:41:04;15.50;99.90
54126;DHT22;40360;52.992;6.796;2023-08-07T06:43:30;15.40;99.90
54126;DHT22;40360;52.992;6.796;2023-08-07T06:45:56;15.40;99.90
54126;DHT22;40360;52.992;6.796;2023-08-07T06:48:22;15.40;99.90
54126;DHT22;40360;52.992;6.796;2023-08-07T06:50:49;15.40;99.90
54126;DHT22;40360;52.992;6.796;2023-08-07T06:53:16;15.30;99.90
54126;DHT22;40360;52.992;6.796;2023-08-07T06:55:42;15.30;99.90
54126;DHT22;40360;52.992;6.796;2023-08-07T06:58:08;15.30;99.90
54126;DHT22;40360;52.992;6.796;2023-08-07T07:00:34;15.20;99.90
54126;DHT22;40360;52.992;6.796;2023-08-07T07:03:01;15.20;99.90
54126;DHT22;40360;52.992;6.796;2023-08-07T07:05:27;15.20;99.90
54126;DHT22;40360;52.992;6.796;2023-08-07T07:08:03;15.20;99.90
54126;DHT22;40360;52.992;6.796;2023-08-07T07:10:30;15.30;99.90
54126;DHT22;40360;52.992;6.796;2023-08-07T07:12:56;15.30;99.90
54126;DHT22;40360;52.992;6.796;2023-08-07T07:15:22;15.30;99.90
54126;DHT22;40360;52.992;6.796;2023-08-07T07:17:48;15.30;99.90
54126;DHT22;40360;52.992;6.796;2023-08-07T07:20:14;15.20;99.90
54126;DHT22;40360;52.992;6.796;2023-08-07T07:22:40;15.20;99.90
54126;DHT22;40360;52.992;6.796;2023-08-07T07:25:06;15.20;99.90
54126;DHT22;40360;52.992;6.796;2023-08-07T07:27:31;15.40;99.90
54126;DHT22;40360;52.992;6.796;2023-08-07T07:29:57;15.50;99.90
54126;DHT22;40360;52.992;6.796;2023-08-07T07:32:23;15.50;99.90
54126;DHT22;40360;52.992;6.796;2023-08-07T07:34:49;15.70;99.90
54126;DHT22;40360;52.992;6.796;2023-08-07T07:37:15;15.90;99.90
54126;DHT22;40360;52.992;6.796;2023-08-07T07:39:42;15.80;99.90
54126;DHT22;40360;52.992;6.796;2023-08-07T07:42:08;15.80;99.90
54126;DHT22;40360;52.992;6.796;2023-08-07T07:44:33;15.70;99.90
54126;DHT22;40360;52.992;6.796;2023-08-07T07:47:01;15.60;99.90
54126;DHT22;40360;52.992;6.796;2023-08-07T07:49:27;15.50;99.90
54126;DHT22;40360;52.992;6.796;2023-08-07T07:51:54;15.50;99.90
54126;DHT22;40360;52.992;6.796;2023-08-07T07:54:19;15.60;99.90
54126;DHT22;40360;52.992;6.796;2023-08-07T07:56:45;15.60;99.90
54126;DHT22;40360;52.992;6.796;2023-08-07T07:59:12;15.60;99.90
54126;DHT22;40360;52.992;6.796;2023-08-07T08:01:37;15.50;99.90
54126;DHT22;40360;52.992;6.796;2023-08-07T08:04:03;15.30;99.90
54126;DHT22;40360;52.992;6.796;2023-08-07T08:06:29;15.20;99.90
54126;DHT22;40360;52.992;6.796;2023-08-07T08:08:56;15.20;99.90
54126;DHT22;40360;52.992;6.796;2023-08-07T08:11:22;15.10;99.90
54126;DHT22;40360;52.992;6.796;2023-08-07T08:13:48;15.20;99.90
54126;DHT22;40360;52.992;6.796;2023-08-07T08:16:15;15.30;99.90
54126;DHT22;40360;52.992;6.796;2023-08-07T08:18:40;15.30;99.90
54126;DHT22;40360;52.992;6.796;2023-08-07T08:21:06;15.20;99.90
54126;DHT22;40360;52.992;6.796;2023-08-07T08:23:32;15.40;99.90
54126;DHT22;40360;52.992;6.796;2023-08-07T08:25:58;15.60;99.90
54126;DHT22;40360;52.992;6.796;2023-08-07T08:28:23;15.80;99.90
54126;DHT22;40360;52.992;6.796;2023-08-07T08:30:49;15.90;99.90
54126;DHT22;40360;52.992;6.796;2023-08-07T08:33:14;15.70;99.90
54126;DHT22;40360;52.992;6.796;2023-08-07T08:35:40;15.50;99.90
54126;DHT22;40360;52.992;6.796;2023-08-07T08:38:06;15.40;99.90
54126;DHT22;40360;52.992;6.796;2023-08-07T08:40:33;15.40;99.90
54126;DHT22;40360;52.992;6.796;2023-08-07T08:43:03;15.30;99.90
54126;DHT22;40360;52.992;6.796;2023-08-07T08:45:31;15.20;99.90
54126;DHT22;40360;52.992;6.796;2023-08-07T08:48:02;15.20;99.90
54126;DHT22;40360;52.992;6.796;2023-08-07T08:50:29;15.20;99.90
54126;DHT22;40360;52.992;6.796;2023-08-07T08:52:55;15.20;99.90
54126;DHT22;40360;52.992;6.796;2023-08-07T08:55:22;15.30;99.90
54126;DHT22;40360;52.992;6.796;2023-08-07T08:57:48;15.30;99.90
54126;DHT22;40360;52.992;6.796;2023-08-07T09:00:16;15.40;99.90
54126;DHT22;40360;52.992;6.796;2023-08-07T09:02:47;15.40;99.90
54126;DHT22;40360;52.992;6.796;2023-08-07T09:05:14;15.50;99.90
54126;DHT22;40360;52.992;6.796;2023-08-07T09:07:41;15.60;99.90
54126;DHT22;40360;52.992;6.796;2023-08-07T09:10:09;15.70;99.90
54126;DHT22;40360;52.992;6.796;2023-08-07T09:12:40;15.80;99.90
54126;DHT22;40360;52.992;6.796;2023-08-07T09:15:07;15.90;99.90
54126;DHT22;40360;52.992;6.796;2023-08-07T09:17:39;16.10;99.90
54126;DHT22;40360;52.992;6.796;2023-08-07T09:20:09;16.30;99.90
54126;DHT22;40360;52.992;6.796;2023-08-07T09:22:42;16.40;99.90
54126;DHT22;40360;52.992;6.796;2023-08-07T09:25:08;16.60;99.90
54126;DHT22;40360;52.992;6.796;2023-08-07T09:27:39;16.80;99.90
54126;DHT22;40360;52.992;6.796;2023-08-07T09:30:06;16.90;99.90
54126;DHT22;40360;52.992;6.796;2023-08-07T09:32:35;17.10;99.90
54126;DHT22;40360;52.992;6.796;2023-08-07T09:35:03;17.20;99.90
54126;DHT22;40360;52.992;6.796;2023-08-07T09:37:30;17.20;99.90
54126;DHT22;40360;52.992;6.796;2023-08-07T09:39:55;17.30;99.90
54126;DHT22;40360;52.992;6.796;2023-08-07T09:42:22;17.40;99.90
54126;DHT22;40360;52.992;6.796;2023-08-07T09:44:48;17.40;99.90
54126;DHT22;40360;52.992;6.796;2023-08-07T09:47:18;17.50;99.90
54126;DHT22;40360;52.992;6.796;2023-08-07T09:49:44;17.60;99.90
54126;DHT22;40360;52.992;6.796;2023-08-07T09:52:13;17.50;99.90
54126;DHT22;40360;52.992;6.796;2023-08-07T09:54:39;17.60;99.90
54126;DHT22;40360;52.992;6.796;2023-08-07T09:57:06;17.60;99.90
54126;DHT22;40360;52.992;6.796;2023-08-07T09:59:35;17.80;99.90
54126;DHT22;40360;52.992;6.796;2023-08-07T10:02:02;17.80;99.90
54126;DHT22;40360;52.992;6.796;2023-08-07T10:04:28;17.80;99.90
54126;DHT22;40360;52.992;6.796;2023-08-07T10:06:54;17.70;99.90
54126;DHT22;40360;52.992;6.796;2023-08-07T10:09:20;17.40;99.90
54126;DHT22;40360;52.992;6.796;2023-08-07T10:11:46;17.40;99.90
54126;DHT22;40360;52.992;6.796;2023-08-07T10:14:14;17.60;99.90
54126;DHT22;40360;52.992;6.796;2023-08-07T10:16:41;17.70;99.90
54126;DHT22;40360;52.992;6.796;2023-08-07T10:19:10;17.90;99.90
54126;DHT22;40360;52.992;6.796;2023-08-07T10:21:39;18.10;99.90
54126;DHT22;40360;52.992;6.796;2023-08-07T10:24:06;18.00;99.90
54126;DHT22;40360;52.992;6.796;2023-08-07T10:26:34;17.80;99.90
54126;DHT22;40360;52.992;6.796;2023-08-07T10:29:02;17.50;99.90
54126;DHT22;40360;52.992;6.796;2023-08-07T10:31:29;17.40;99.90
54126;DHT22;40360;52.992;6.796;2023-08-07T10:33:55;17.30;99.90
54126;DHT22;40360;52.992;6.796;2023-08-07T10:36:21;17.10;99.90
54126;DHT22;40360;52.992;6.796;2023-08-07T10:38:50;17.20;99.90
54126;DHT22;40360;52.992;6.796;2023-08-07T10:41:19;17.20;99.90
54126;DHT22;40360;52.992;6.796;2023-08-07T10:43:46;17.10;99.90
54126;DHT22;40360;52.992;6.796;2023-08-07T10:46:19;17.40;99.90
54126;DHT22;40360;52.992;6.796;2023-08-07T10:48:47;17.20;99.90
54126;DHT22;40360;52.992;6.796;2023-08-07T10:51:18;17.20;99.90
54126;DHT22;40360;52.992;6.796;2023-08-07T10:53:47;17.30;99.90
54126;DHT22;40360;52.992;6.796;2023-08-07T10:56:34;17.30;99.90
54126;DHT22;40360;52.992;6.796;2023-08-07T10:59:09;17.30;99.90
54126;DHT22;40360;52.992;6.796;2023-08-07T11:04:13;17.00;99.90
54126;DHT22;40360;52.992;6.796;2023-08-07T11:06:40;17.10;99.90
54126;DHT22;40360;52.992;6.796;2023-08-07T11:09:08;17.10;99.90
54126;DHT22;40360;52.992;6.796;2023-08-07T11:11:44;17.40;99.90
54126;DHT22;40360;52.992;6.796;2023-08-07T11:14:12;17.60;99.90
54126;DHT22;40360;52.992;6.796;2023-08-07T11:16:39;17.80;99.90
54126;DHT22;40360;52.992;6.796;2023-08-07T11:19:05;17.80;99.90
54126;DHT22;40360;52.992;6.796;2023-08-07T11:21:31;17.70;99.90
54126;DHT22;40360;52.992;6.796;2023-08-07T11:23:58;17.70;99.90
54126;DHT22;40360;52.992;6.796;2023-08-07T11:26:23;17.90;99.90
54126;DHT22;40360;52.992;6.796;2023-08-07T11:28:51;18.10;99.90
54126;DHT22;40360;52.992;6.796;2023-08-07T11:31:18;18.20;99.90
54126;DHT22;40360;52.992;6.796;2023-08-07T11:33:44;18.20;99.90
54126;DHT22;40360;52.992;6.796;2023-08-07T11:36:14;18.10;99.90
54126;DHT22;40360;52.992;6.796;2023-08-07T11:38:41;18.00;99.90
54126;DHT22;40360;52.992;6.796;2023-08-07T11:41:15;18.10;99.90
54126;DHT22;40360;52.992;6.796;2023-08-07T11:43:41;18.10;99.90
54126;DHT22;40360;52.992;6.796;2023-08-07T11:46:08;18.20;99.90
54126;DHT22;40360;52.992;6.796;2023-08-07T11:48:36;18.20;99.90
54126;DHT22;40360;52.992;6.796;2023-08-07T11:51:03;18.10;99.90
54126;DHT22;40360;52.992;6.796;2023-08-07T11:53:31;18.10;99.90
54126;DHT22;40360;52.992;6.796;2023-08-07T11:55:58;18.00;99.90
54126;DHT22;40360;52.992;6.796;2023-08-07T11:58:27;17.90;99.90
54126;DHT22;40360;52.992;6.796;2023-08-07T12:00:55;17.80;99.90
54126;DHT22;40360;52.992;6.796;2023-08-07T12:05:55;17.70;99.90
54126;DHT22;40360;52.992;6.796;2023-08-07T12:08:21;17.90;99.90
54126;DHT22;40360;52.992;6.796;2023-08-07T12:10:53;18.00;99.90
54126;DHT22;40360;52.992;6.796;2023-08-07T12:13:26;18.00;99.90
54126;DHT22;40360;52.992;6.796;2023-08-07T12:15:56;18.00;99.90
54126;DHT22;40360;52.992;6.796;2023-08-07T12:18:25;18.00;99.90
54126;DHT22;40360;52.992;6.796;2023-08-07T12:20:52;17.90;99.90
54126;DHT22;40360;52.992;6.796;2023-08-07T12:23:20;17.80;99.90
54126;DHT22;40360;52.992;6.796;2023-08-07T12:25:46;17.70;99.90
54126;DHT22;40360;52.992;6.796;2023-08-07T12:28:12;17.70;99.90
54126;DHT22;40360;52.992;6.796;2023-08-07T12:30:38;17.70;99.90
54126;DHT22;40360;52.992;6.796;2023-08-07T12:33:04;17.70;99.90
54126;DHT22;40360;52.992;6.796;2023-08-07T12:35:31;17.50;99.90
54126;DHT22;40360;52.992;6.796;2023-08-07T12:37:57;17.30;99.90
54126;DHT22;40360;52.992;6.796;2023-08-07T12:40:23;17.20;99.90
54126;DHT22;40360;52.992;6.796;2023-08-07T12:42:49;17.10;99.90
54126;DHT22;40360;52.992;6.796;2023-08-07T12:45:15;16.90;99.90
54126;DHT22;40360;52.992;6.796;2023-08-07T12:47:42;16.80;99.90
54126;DHT22;40360;52.992;6.796;2023-08-07T12:50:08;16.90;99.90
54126;DHT22;40360;52.992;6.796;2023-08-07T12:52:34;16.90;99.90
54126;DHT22;40360;52.992;6.796;2023-08-07T12:55:00;16.80;99.90
54126;DHT22;40360;52.992;6.796;2023-08-07T12:57:26;16.80;99.90
54126;DHT22;40360;52.992;6.796;2023-08-07T12:59:51;16.80;99.90
54126;DHT22;40360;52.992;6.796;2023-08-07T13:02:17;17.00;99.90
54126;DHT22;40360;52.992;6.796;2023-08-07T13:04:43;17.40;99.90
54126;DHT22;40360;52.992;6.796;2023-08-07T13:07:08;17.70;99.90
54126;DHT22;40360;52.992;6.796;2023-08-07T13:09:34;17.80;99.90
54126;DHT22;40360;52.992;6.796;2023-08-07T13:12:00;17.80;99.90
54126;DHT22;40360;52.992;6.796;2023-08-07T13:14:25;18.00;99.90
54126;DHT22;40360;52.992;6.796;2023-08-07T13:16:51;18.00;99.90
54126;DHT22;40360;52.992;6.796;2023-08-07T13:19:17;18.20;99.90
54126;DHT22;40360;52.992;6.796;2023-08-07T13:21:43;18.00;99.90
54126;DHT22;40360;52.992;6.796;2023-08-07T13:24:09;17.90;99.90
54126;DHT22;40360;52.992;6.796;2023-08-07T13:26:34;17.90;99.90
54126;DHT22;40360;52.992;6.796;2023-08-07T13:29:00;18.00;99.90
54126;DHT22;40360;52.992;6.796;2023-08-07T13:31:25;18.40;99.90
54126;DHT22;40360;52.992;6.796;2023-08-07T13:33:52;18.50;99.90
54126;DHT22;40360;52.992;6.796;2023-08-07T13:36:17;18.60;99.90
54126;DHT22;40360;52.992;6.796;2023-08-07T13:38:43;18.50;99.90
54126;DHT22;40360;52.992;6.796;2023-08-07T13:41:08;18.20;99.90
54126;DHT22;40360;52.992;6.796;2023-08-07T13:43:34;18.00;99.90
54126;DHT22;40360;52.992;6.796;2023-08-07T13:46:00;18.00;99.90
54126;DHT22;40360;52.992;6.796;2023-08-07T13:48:25;18.00;99.90
54126;DHT22;40360;52.992;6.796;2023-08-07T13:50:53;18.10;99.90
54126;DHT22;40360;52.992;6.796;2023-08-07T13:53:18;18.00;99.90
54126;DHT22;40360;52.992;6.796;2023-08-07T13:55:46;18.00;99.90
54126;DHT22;40360;52.992;6.796;2023-08-07T13:58:12;18.10;99.90
54126;DHT22;40360;52.992;6.796;2023-08-07T14:00:41;18.10;99.90
54126;DHT22;40360;52.992;6.796;2023-08-07T14:03:08;18.20;99.90
54126;DHT22;40360;52.992;6.796;2023-08-07T14:05:34;18.40;99.90
54126;DHT22;40360;52.992;6.796;2023-08-07T14:07:59;18.50;99.90
54126;DHT22;40360;52.992;6.796;2023-08-07T14:10:25;18.50;99.90
54126;DHT22;40360;52.992;6.796;2023-08-07T14:12:51;18.50;99.90
54126;DHT22;40360;52.992;6.796;2023-08-07T14:15:16;18.40;99.90
54126;DHT22;40360;52.992;6.796;2023-08-07T14:17:42;18.30;99.90
54126;DHT22;40360;52.992;6.796;2023-08-07T14:20:08;18.20;99.90
54126;DHT22;40360;52.992;6.796;2023-08-07T14:22:34;18.20;99.90
54126;DHT22;40360;52.992;6.796;2023-08-07T14:25:02;18.30;99.90
54126;DHT22;40360;52.992;6.796;2023-08-07T14:27:28;18.40;99.90
54126;DHT22;40360;52.992;6.796;2023-08-07T14:29:54;18.40;99.90
54126;DHT22;40360;52.992;6.796;2023-08-07T14:32:19;18.30;99.90
54126;DHT22;40360;52.992;6.796;2023-08-07T14:34:45;18.10;99.90
54126;DHT22;40360;52.992;6.796;2023-08-07T14:37:13;17.90;99.90
54126;DHT22;40360;52.992;6.796;2023-08-07T14:39:38;17.70;99.90
54126;DHT22;40360;52.992;6.796;2023-08-07T14:42:04;17.70;99.90
54126;DHT22;40360;52.992;6.796;2023-08-07T14:44:30;17.80;99.90
54126;DHT22;40360;52.992;6.796;2023-08-07T14:46:55;18.00;99.90
54126;DHT22;40360;52.992;6.796;2023-08-07T14:49:21;18.20;99.90
54126;DHT22;40360;52.992;6.796;2023-08-07T14:51:47;18.40;99.90
54126;DHT22;40360;52.992;6.796;2023-08-07T14:54:12;18.60;99.90
54126;DHT22;40360;52.992;6.796;2023-08-07T14:56:38;18.60;99.90
54126;DHT22;40360;52.992;6.796;2023-08-07T14:59:03;18.60;99.90
54126;DHT22;40360;52.992;6.796;2023-08-07T15:01:29;18.40;99.90
54126;DHT22;40360;52.992;6.796;2023-08-07T15:03:55;18.50;99.90
54126;DHT22;40360;52.992;6.796;2023-08-07T15:06:21;18.60;99.90
54126;DHT22;40360;52.992;6.796;2023-08-07T15:08:47;18.40;99.90
54126;DHT22;40360;52.992;6.796;2023-08-07T15:11:13;18.40;99.90
54126;DHT22;40360;52.992;6.796;2023-08-07T15:13:39;18.30;99.90
54126;DHT22;40360;52.992;6.796;2023-08-07T15:16:05;18.20;99.90
54126;DHT22;40360;52.992;6.796;2023-08-07T15:18:31;18.00;99.90
54126;DHT22;40360;52.992;6.796;2023-08-07T15:20:58;18.00;99.90
54126;DHT22;40360;52.992;6.796;2023-08-07T15:23:26;18.20;99.90
54126;DHT22;40360;52.992;6.796;2023-08-07T15:25:52;18.30;99.90
54126;DHT22;40360;52.992;6.796;2023-08-07T15:28:17;18.30;99.90
54126;DHT22;40360;52.992;6.796;2023-08-07T15:30:50;18.30;99.90
54126;DHT22;40360;52.992;6.796;2023-08-07T15:33:16;18.30;99.90
54126;DHT22;40360;52.992;6.796;2023-08-07T15:35:43;18.20;99.90
54126;DHT22;40360;52.992;6.796;2023-08-07T15:38:08;18.10;99.90
54126;DHT22;40360;52.992;6.796;2023-08-07T15:40:39;18.00;99.90
54126;DHT22;40360;52.992;6.796;2023-08-07T15:43:07;17.90;99.90
54126;DHT22;40360;52.992;6.796;2023-08-07T15:45:33;17.80;99.90
54126;DHT22;40360;52.992;6.796;2023-08-07T15:47:58;17.70;99.90
54126;DHT22;40360;52.992;6.796;2023-08-07T15:50:24;17.70;99.90
54126;DHT22;40360;52.992;6.796;2023-08-07T15:52:50;17.80;99.90
54126;DHT22;40360;52.992;6.796;2023-08-07T15:55:15;17.90;99.90
54126;DHT22;40360;52.992;6.796;2023-08-07T15:57:42;17.70;99.90